createdAt,value
2024-01-27T00:00:45.860Z,99.90
2024-01-27T00:03:14.329Z,99.90
2024-01-27T00:05:42.738Z,99.90
2024-01-27T00:08:11.166Z,99.90
2024-01-27T00:10:39.655Z,99.90
2024-01-27T00:13:08.078Z,99.90
2024-01-27T00:15:38.160Z,99.90
2024-01-27T00:18:06.859Z,99.90
2024-01-27T00:20:35.429Z,99.90
2024-01-27T00:23:03.755Z,99.90
2024-01-27T00:25:32.196Z,99.90
2024-01-27T00:28:00.553Z,99.90
2024-01-27T00:30:29.059Z,99.90
2024-01-27T00:32:59.023Z,99.90
2024-01-27T00:35:27.452Z,99.90
2024-01-27T00:37:55.888Z,99.90
2024-01-27T00:40:24.285Z,99.90
2024-01-27T00:42:52.734Z,99.90
2024-01-27T00:45:23.866Z,99.90
2024-01-27T00:47:52.854Z,99.90
2024-01-27T00:50:22.739Z,99.90
2024-01-27T00:52:51.233Z,99.90
2024-01-27T00:55:19.904Z,99.90
2024-01-27T00:57:48.257Z,99.90
2024-01-27T01:00:17.667Z,99.90
2024-01-27T01:02:45.079Z,99.90
2024-01-27T01:05:13.638Z,99.90
2024-01-27T01:07:43.614Z,99.90
2024-01-27T01:10:12.282Z,99.90
2024-01-27T01:12:40.835Z,99.90
2024-01-27T01:15:10.304Z,99.90
2024-01-27T01:17:38.787Z,99.90
2024-01-27T01:20:08.574Z,99.90
2024-01-27T01:22:36.967Z,99.90
2024-01-27T01:25:07.793Z,99.90
2024-01-27T01:27:36.408Z,99.90
2024-01-27T01:30:05.059Z,99.90
2024-01-27T01:32:34.472Z,99.90
2024-01-27T01:35:02.854Z,99.90
2024-01-27T01:37:31.322Z,99.90
2024-01-27T01:40:00.163Z,99.90
2024-01-27T01:42:30.523Z,99.90
2024-01-27T01:44:59.058Z,99.90
2024-01-27T01:47:28.031Z,99.90
2024-01-27T01:49:56.991Z,99.90
2024-01-27T01:52:25.950Z,99.90
2024-01-27T01:54:54.335Z,99.90
2024-01-27T01:57:22.787Z,99.90
2024-01-27T01:59:52.641Z,99.90
2024-01-27T02:02:22.162Z,99.90
2024-01-27T02:04:50.662Z,99.90
2024-01-27T02:07:19.129Z,99.90
2024-01-27T02:09:47.494Z,99.90
2024-01-27T02:12:16.058Z,99.90
2024-01-27T02:14:44.469Z,99.90
2024-01-27T02:17:14.297Z,99.90
2024-01-27T02:19:42.771Z,99.90
2024-01-27T02:22:11.146Z,99.90
2024-01-27T02:24:41.029Z,99.90
2024-01-27T02:27:09.411Z,99.90
2024-01-27T02:29:37.793Z,99.90
2024-01-27T02:32:07.235Z,99.90
2024-01-27T02:34:35.669Z,99.90
2024-01-27T02:37:04.161Z,99.90
2024-01-27T02:39:32.502Z,99.90
2024-01-27T02:42:02.302Z,99.90
2024-01-27T02:44:30.621Z,99.90
2024-01-27T02:46:59.120Z,99.90
2024-01-27T02:49:27.526Z,99.90
2024-01-27T02:51:56.000Z,99.90
2024-01-27T02:54:24.456Z,99.90
2024-01-27T02:56:52.900Z,99.90
2024-01-27T02:59:22.626Z,99.90
2024-01-27T03:01:50.985Z,99.90
2024-01-27T03:04:19.280Z,99.90
2024-01-27T03:06:47.766Z,99.90
2024-01-27T03:09:16.214Z,99.90
2024-01-27T03:11:44.650Z,99.90
2024-01-27T03:14:13.089Z,99.90
2024-01-27T03:16:48.614Z,99.90
2024-01-27T03:19:17.224Z,99.90
2024-01-27T03:21:45.869Z,99.90
2024-01-27T03:24:14.324Z,99.90
2024-01-27T03:26:42.609Z,99.90
2024-01-27T03:29:10.951Z,99.90
2024-01-27T03:31:39.261Z,99.90
2024-01-27T03:34:09.344Z,99.90
2024-01-27T03:36:37.894Z,99.90
2024-01-27T03:39:06.322Z,99.90
2024-01-27T03:41:34.653Z,99.90
2024-01-27T03:44:03.073Z,99.90
2024-01-27T03:46:31.400Z,99.90
2024-01-27T03:49:00.001Z,99.90
2024-01-27T03:51:30.144Z,99.90
2024-01-27T03:53:58.704Z,99.90
2024-01-27T03:56:27.043Z,99.90
2024-01-27T03:58:55.470Z,99.90
2024-01-27T04:01:24.224Z,99.90
2024-01-27T04:03:52.604Z,99.90
2024-01-27T04:06:21.064Z,99.90
2024-01-27T04:08:50.899Z,99.90
2024-01-27T04:11:23.164Z,99.90
2024-01-27T04:13:52.329Z,99.90
2024-01-27T04:16:20.775Z,99.90
2024-01-27T04:18:49.479Z,99.90
2024-01-27T04:21:18.050Z,99.90
2024-01-27T04:23:46.517Z,99.90
2024-01-27T04:26:16.444Z,99.90
2024-01-27T04:28:44.882Z,99.90
2024-01-27T04:31:13.232Z,99.90
2024-01-27T04:33:41.695Z,99.90
2024-01-27T04:36:11.569Z,99.90
2024-01-27T04:38:39.915Z,99.90
2024-01-27T04:41:08.245Z,99.90
2024-01-27T04:43:37.986Z,99.90
2024-01-27T04:46:06.496Z,99.90
2024-01-27T04:48:34.920Z,99.90
2024-01-27T04:51:03.304Z,99.90
2024-01-27T04:53:31.696Z,99.90
2024-01-27T04:55:59.987Z,99.90
2024-01-27T04:58:28.424Z,99.90
2024-01-27T05:00:58.252Z,99.90
2024-01-27T05:03:26.643Z,99.90
2024-01-27T05:05:55.776Z,99.90
2024-01-27T05:08:24.149Z,99.90
2024-01-27T05:10:54.191Z,99.90
2024-01-27T05:13:23.802Z,99.90
2024-01-27T05:15:52.244Z,99.90
2024-01-27T05:18:22.197Z,99.90
2024-01-27T05:20:50.670Z,99.90
2024-01-27T05:23:19.011Z,99.90
2024-01-27T05:25:47.477Z,99.90
2024-01-27T05:28:16.014Z,99.90
2024-01-27T05:30:44.969Z,99.90
2024-01-27T05:33:13.517Z,99.90
2024-01-27T05:35:43.547Z,99.90
2024-01-27T05:38:11.914Z,99.90
2024-01-27T05:40:41.904Z,99.90
2024-01-27T05:43:10.749Z,99.90
2024-01-27T05:45:39.187Z,99.90
2024-01-27T05:48:08.692Z,99.90
2024-01-27T05:50:37.097Z,99.90
2024-01-27T05:53:07.016Z,99.90
2024-01-27T05:55:35.796Z,99.90
2024-01-27T05:58:04.161Z,99.90
2024-01-27T06:00:32.664Z,99.90
2024-01-27T06:03:01.226Z,99.90
2024-01-27T06:05:29.767Z,99.90
2024-01-27T06:07:58.229Z,99.90
2024-01-27T06:10:28.165Z,99.90
2024-01-27T06:12:56.534Z,99.90
2024-01-27T06:15:25.018Z,99.90
2024-01-27T06:17:55.851Z,99.90
2024-01-27T06:20:24.884Z,99.90
2024-01-27T06:22:54.554Z,99.90
2024-01-27T06:25:23.842Z,99.90
2024-01-27T06:27:53.845Z,99.90
2024-01-27T06:30:22.706Z,99.90
2024-01-27T06:32:51.342Z,99.90
2024-01-27T06:35:20.192Z,99.90
2024-01-27T06:37:48.545Z,99.90
2024-01-27T06:40:17.265Z,99.90
2024-01-27T06:42:45.693Z,99.90
2024-01-27T06:45:16.089Z,99.90
2024-01-27T06:47:44.654Z,99.90
2024-01-27T06:50:15.003Z,99.90
2024-01-27T06:52:43.442Z,99.90
2024-01-27T06:55:12.191Z,99.90
2024-01-27T06:57:42.076Z,99.90
2024-01-27T07:00:15.966Z,99.90
2024-01-27T07:02:46.833Z,99.90
2024-01-27T07:05:16.411Z,99.90
2024-01-27T07:07:45.141Z,99.90
2024-01-27T07:10:13.870Z,99.90
2024-01-27T07:12:42.445Z,99.90
2024-01-27T07:15:11.556Z,99.90
2024-01-27T07:17:40.222Z,99.90
2024-01-27T07:20:11.771Z,99.90
2024-01-27T07:22:40.120Z,99.90
2024-01-27T07:25:11.789Z,99.90
2024-01-27T07:27:40.534Z,99.90
2024-01-27T07:30:10.640Z,99.90
2024-01-27T07:32:39.225Z,99.90
2024-01-27T07:35:10.666Z,99.90
2024-01-27T07:37:39.066Z,99.90
2024-01-27T07:40:10.144Z,99.90
2024-01-27T07:42:39.718Z,99.90
2024-01-27T07:45:09.822Z,99.90
2024-01-27T07:47:38.353Z,99.90
2024-01-27T07:50:08.527Z,99.90
2024-01-27T07:52:38.497Z,99.90
2024-01-27T07:55:08.359Z,99.90
2024-01-27T07:57:36.846Z,99.90
2024-01-27T08:00:09.089Z,99.90
2024-01-27T08:02:38.141Z,99.90
2024-01-27T08:05:07.075Z,99.90
2024-01-27T08:07:37.347Z,99.90
2024-01-27T08:10:06.674Z,99.90
2024-01-27T08:12:35.628Z,99.90
2024-01-27T08:15:04.397Z,99.90
2024-01-27T08:17:33.035Z,99.90
2024-01-27T08:20:01.695Z,99.90
2024-01-27T08:22:30.313Z,99.90
2024-01-27T08:25:00.105Z,99.90
2024-01-27T08:27:28.540Z,99.90
2024-01-27T08:29:58.641Z,99.90
2024-01-27T08:32:27.637Z,99.90
2024-01-27T08:34:56.099Z,99.90
2024-01-27T08:37:24.698Z,99.90
2024-01-27T08:39:53.917Z,99.90
2024-01-27T08:42:24.330Z,99.90
2024-01-27T08:44:53.137Z,99.90
2024-01-27T08:47:23.084Z,99.90
2024-01-27T08:49:51.868Z,99.90
2024-01-27T08:52:20.541Z,99.90
2024-01-27T08:54:49.090Z,99.90
2024-01-27T08:57:17.709Z,99.90
2024-01-27T08:59:47.801Z,99.90
2024-01-27T09:02:16.453Z,99.90
2024-01-27T09:04:45.037Z,99.90
2024-01-27T09:07:14.324Z,99.90
2024-01-27T09:09:43.849Z,99.90
2024-01-27T09:12:12.355Z,99.90
2024-01-27T09:14:41.851Z,99.90
2024-01-27T09:17:13.854Z,99.90
2024-01-27T09:19:42.583Z,99.90
2024-01-27T09:22:11.679Z,99.90
2024-01-27T09:24:40.155Z,99.90
2024-01-27T09:27:08.927Z,99.90
2024-01-27T09:29:37.565Z,99.90
2024-01-27T09:32:06.653Z,99.90
2024-01-27T09:34:36.690Z,99.90
2024-01-27T09:37:06.501Z,99.90
2024-01-27T09:39:35.014Z,99.90
2024-01-27T09:42:09.446Z,99.90
2024-01-27T09:44:39.026Z,99.90
2024-01-27T09:47:18.362Z,99.90
2024-01-27T09:49:49.171Z,99.90
2024-01-27T09:52:17.782Z,99.90
2024-01-27T09:54:46.473Z,99.90
2024-01-27T09:57:15.533Z,99.90
2024-01-27T09:59:45.971Z,99.90
2024-01-27T10:02:16.364Z,99.90
2024-01-27T10:04:46.234Z,99.90
2024-01-27T10:07:16.499Z,99.90
2024-01-27T10:09:45.253Z,99.90
2024-01-27T10:12:17.077Z,99.90
2024-01-27T10:14:47.469Z,99.90
2024-01-27T10:17:22.377Z,99.90
2024-01-27T10:20:01.917Z,99.90
2024-01-27T10:22:39.197Z,99.90
2024-01-27T10:25:10.491Z,99.90
2024-01-27T10:27:39.984Z,99.90
2024-01-27T10:30:17.540Z,99.90
2024-01-27T10:32:46.356Z,99.90
2024-01-27T10:35:15.802Z,99.90
2024-01-27T10:37:46.851Z,99.90
2024-01-27T10:40:17.598Z,99.90
2024-01-27T10:42:48.286Z,99.90
2024-01-27T10:45:18.370Z,99.90
2024-01-27T10:47:48.467Z,99.90
2024-01-27T10:50:17.919Z,99.90
2024-01-27T10:52:49.697Z,99.90
2024-01-27T10:55:18.528Z,99.90
2024-01-27T10:57:48.440Z,99.90
2024-01-27T11:00:18.002Z,99.90
2024-01-27T11:02:48.168Z,99.90
2024-01-27T11:05:18.024Z,99.90
2024-01-27T11:07:50.341Z,99.90
2024-01-27T11:10:19.393Z,99.90
2024-01-27T11:12:49.641Z,99.90
2024-01-27T11:15:18.459Z,99.90
2024-01-27T11:17:48.096Z,99.90
2024-01-27T11:20:18.212Z,99.90
2024-01-27T11:22:48.576Z,99.90
2024-01-27T11:25:19.300Z,99.90
2024-01-27T11:27:49.625Z,99.90
2024-01-27T11:30:30.031Z,99.90
2024-01-27T11:32:59.209Z,99.90
2024-01-27T11:35:27.862Z,99.90
2024-01-27T11:37:58.509Z,99.90
2024-01-27T11:40:27.162Z,99.90
2024-01-27T11:42:59.166Z,99.90
2024-01-27T11:45:29.264Z,99.90
2024-01-27T11:47:59.026Z,99.90
2024-01-27T11:50:27.622Z,99.90
2024-01-27T11:52:59.029Z,99.90
2024-01-27T11:55:28.350Z,99.90
2024-01-27T11:57:57.166Z,99.90
2024-01-27T12:00:25.911Z,99.90
2024-01-27T12:02:54.414Z,99.90
2024-01-27T12:05:23.375Z,99.90
2024-01-27T12:07:52.478Z,99.90
2024-01-27T12:10:22.589Z,99.90
2024-01-27T12:12:51.107Z,99.90
2024-01-27T12:15:21.649Z,99.90
2024-01-27T12:17:53.505Z,99.90
2024-01-27T12:20:26.595Z,99.90
2024-01-27T12:23:05.648Z,99.90
2024-01-27T12:25:36.146Z,99.90
2024-01-27T12:28:05.365Z,99.90
2024-01-27T12:30:35.509Z,99.90
2024-01-27T12:33:04.159Z,99.90
2024-01-27T12:35:33.372Z,99.90
2024-01-27T12:38:03.267Z,99.90
2024-01-27T12:40:32.192Z,99.90
2024-01-27T12:43:02.738Z,99.90
2024-01-27T12:45:31.581Z,99.90
2024-01-27T12:48:00.861Z,99.90
2024-01-27T12:50:30.112Z,99.90
2024-01-27T12:52:58.905Z,99.90
2024-01-27T12:55:27.532Z,99.90
2024-01-27T12:57:56.106Z,99.90
2024-01-27T13:00:25.469Z,99.90
2024-01-27T13:02:54.171Z,99.90
2024-01-27T13:05:22.800Z,99.90
2024-01-27T13:07:51.476Z,99.90
2024-01-27T13:10:21.375Z,99.90
2024-01-27T13:12:49.874Z,99.90
2024-01-27T13:15:19.139Z,99.90
2024-01-27T13:17:49.274Z,99.90
2024-01-27T13:20:20.531Z,99.90
2024-01-27T13:22:50.027Z,99.90
2024-01-27T13:25:18.744Z,99.90
2024-01-27T13:27:48.232Z,99.90
2024-01-27T13:30:18.710Z,99.90
2024-01-27T13:32:48.719Z,99.90
2024-01-27T13:35:17.439Z,99.90
2024-01-27T13:37:47.288Z,99.90
2024-01-27T13:40:15.958Z,99.90
2024-01-27T13:42:44.586Z,99.90
2024-01-27T13:45:13.199Z,99.90
2024-01-27T13:47:41.749Z,99.90
2024-01-27T13:50:13.152Z,99.90
2024-01-27T13:52:42.297Z,99.90
2024-01-27T13:55:12.006Z,99.90
2024-01-27T13:57:40.071Z,99.90
2024-01-27T14:00:11.222Z,99.90
2024-01-27T14:02:41.401Z,99.90
2024-01-27T14:05:11.653Z,99.90
2024-01-27T14:07:40.300Z,99.90
2024-01-27T14:10:10.074Z,99.90
2024-01-27T14:12:38.628Z,99.90
2024-01-27T14:15:09.803Z,99.90
2024-01-27T14:17:38.483Z,99.90
2024-01-27T14:20:10.638Z,99.90
2024-01-27T14:22:40.773Z,99.90
2024-01-27T14:25:11.254Z,99.90
2024-01-27T14:27:39.954Z,99.90
2024-01-27T14:30:09.864Z,99.90
2024-01-27T14:32:38.477Z,99.90
2024-01-27T14:35:08.103Z,99.90
2024-01-27T14:37:36.770Z,99.90
2024-01-27T14:40:07.543Z,99.90
2024-01-27T14:42:37.366Z,99.90
2024-01-27T14:45:06.391Z,99.90
2024-01-27T14:47:35.017Z,99.90
2024-01-27T14:50:03.821Z,99.90
2024-01-27T14:52:33.042Z,99.90
2024-01-27T14:55:01.523Z,99.90
2024-01-27T14:57:31.594Z,99.90
2024-01-27T15:00:00.091Z,99.90
2024-01-27T15:02:30.860Z,99.90
2024-01-27T15:04:59.295Z,99.90
2024-01-27T15:07:31.001Z,99.90
2024-01-27T15:09:59.567Z,99.90
2024-01-27T15:12:28.086Z,99.90
2024-01-27T15:14:58.155Z,99.90
2024-01-27T15:17:26.982Z,99.90
2024-01-27T15:19:55.572Z,99.90
2024-01-27T15:22:24.402Z,99.90
2024-01-27T15:24:54.428Z,99.90
2024-01-27T15:27:23.018Z,99.90
2024-01-27T15:29:53.964Z,99.90
2024-01-27T15:32:28.391Z,99.90
2024-01-27T15:34:57.100Z,99.90
2024-01-27T15:37:25.740Z,99.90
2024-01-27T15:39:54.708Z,99.90
2024-01-27T15:42:24.371Z,99.90
2024-01-27T15:44:52.830Z,99.90
2024-01-27T15:47:21.468Z,99.90
2024-01-27T15:49:58.129Z,99.90
2024-01-27T15:52:26.785Z,99.90
2024-01-27T15:54:55.197Z,99.90
2024-01-27T15:57:23.689Z,99.90
2024-01-27T15:59:52.641Z,99.90
2024-01-27T16:02:21.416Z,99.90
2024-01-27T16:04:51.313Z,99.90
2024-01-27T16:07:19.954Z,99.90
2024-01-27T16:09:49.139Z,99.90
2024-01-27T16:12:18.321Z,99.90
2024-01-27T16:14:46.794Z,99.90
2024-01-27T16:17:15.393Z,99.90
2024-01-27T16:19:43.998Z,99.90
2024-01-27T16:22:17.583Z,99.90
2024-01-27T16:24:46.184Z,99.90
2024-01-27T16:27:14.779Z,99.90
2024-01-27T16:29:43.554Z,99.90
2024-01-27T16:32:12.571Z,99.90
2024-01-27T16:34:41.117Z,99.90
2024-01-27T16:37:09.700Z,99.90
2024-01-27T16:39:39.869Z,99.90
2024-01-27T16:42:08.764Z,99.90
2024-01-27T16:44:37.299Z,99.90
2024-01-27T16:47:06.845Z,99.90
2024-01-27T16:49:35.479Z,99.90
2024-01-27T16:52:04.152Z,99.90
2024-01-27T16:54:32.837Z,99.90
2024-01-27T16:57:02.890Z,99.90
2024-01-27T16:59:31.523Z,99.90
2024-01-27T17:02:01.014Z,99.90
2024-01-27T17:04:29.527Z,99.90
2024-01-27T17:06:57.982Z,99.90
2024-01-27T17:09:26.390Z,99.90
2024-01-27T17:11:58.107Z,99.90
2024-01-27T17:14:28.068Z,99.90
2024-01-27T17:16:56.687Z,99.90
2024-01-27T17:19:25.337Z,99.90
2024-01-27T17:21:54.128Z,99.90
2024-01-27T17:24:22.735Z,99.90
2024-01-27T17:26:51.201Z,99.90
2024-01-27T17:29:20.497Z,99.90
2024-01-27T17:31:50.444Z,99.90
2024-01-27T17:34:21.754Z,99.90
2024-01-27T17:36:51.855Z,99.90
2024-01-27T17:39:22.285Z,99.90
2024-01-27T17:41:50.844Z,99.90
2024-01-27T17:44:19.283Z,99.90
2024-01-27T17:46:49.193Z,99.90
2024-01-27T17:49:17.848Z,99.90
2024-01-27T17:51:48.968Z,99.90
2024-01-27T17:54:17.459Z,99.90
2024-01-27T17:56:46.108Z,99.90
2024-01-27T17:59:14.544Z,99.90
2024-01-27T18:01:43.192Z,99.90
2024-01-27T18:04:13.376Z,99.90
2024-01-27T18:06:42.162Z,99.90
2024-01-27T18:09:11.157Z,99.90
2024-01-27T18:11:40.013Z,99.90
2024-01-27T18:14:08.548Z,99.90
2024-01-27T18:16:36.958Z,99.90
2024-01-27T18:19:05.969Z,99.90
2024-01-27T18:21:36.272Z,99.90
2024-01-27T18:24:04.964Z,99.90
2024-01-27T18:26:33.478Z,99.90
2024-01-27T18:29:02.030Z,99.90
2024-01-27T18:31:30.464Z,99.90
2024-01-27T18:33:59.059Z,99.90
2024-01-27T18:36:27.646Z,99.90
2024-01-27T18:38:57.799Z,99.90
2024-01-27T18:41:26.512Z,99.80
2024-01-27T18:43:55.174Z,99.50
2024-01-27T18:46:23.966Z,99.40
2024-01-27T18:48:52.591Z,99.40
2024-01-27T18:51:21.207Z,99.20
2024-01-27T18:53:51.021Z,99.10
2024-01-27T18:56:20.843Z,99.00
2024-01-27T18:58:49.380Z,99.00
2024-01-27T19:01:17.927Z,98.80
2024-01-27T19:03:46.603Z,98.50
2024-01-27T19:06:15.432Z,98.50
2024-01-27T19:08:44.123Z,98.40
2024-01-27T19:11:12.716Z,98.40
2024-01-27T19:13:42.720Z,98.40
2024-01-27T19:16:11.325Z,98.30
2024-01-27T19:18:40.901Z,98.20
2024-01-27T19:21:09.424Z,98.00
2024-01-27T19:23:38.352Z,97.90
2024-01-27T19:26:06.840Z,97.90
2024-01-27T19:28:35.418Z,97.80
2024-01-27T19:31:05.690Z,97.60
2024-01-27T19:33:34.341Z,97.60
2024-01-27T19:36:04.445Z,97.40
2024-01-27T19:38:33.050Z,97.40
2024-01-27T19:41:11.736Z,97.20
2024-01-27T19:43:48.636Z,97.20
2024-01-27T19:46:19.447Z,97.10
2024-01-27T19:48:48.471Z,96.90
2024-01-27T19:51:17.737Z,96.70
2024-01-27T19:53:46.198Z,96.80
2024-01-27T19:56:15.992Z,96.60
2024-01-27T19:58:44.708Z,96.80
2024-01-27T20:01:13.295Z,96.70
2024-01-27T20:03:44.040Z,96.80
2024-01-27T20:06:12.953Z,97.00
2024-01-27T20:08:42.283Z,96.70
2024-01-27T20:11:12.161Z,96.60
2024-01-27T20:13:40.851Z,96.60
2024-01-27T20:16:09.927Z,96.70
2024-01-27T20:18:39.075Z,96.80
2024-01-27T20:21:09.821Z,96.70
2024-01-27T20:23:39.471Z,96.50
2024-01-27T20:26:08.077Z,96.30
2024-01-27T20:28:36.945Z,96.10
2024-01-27T20:31:05.684Z,96.00
2024-01-27T20:33:41.657Z,95.90
2024-01-27T20:36:19.342Z,96.20
2024-01-27T20:38:48.723Z,95.90
2024-01-27T20:41:17.626Z,95.80
2024-01-27T20:43:47.193Z,95.70
2024-01-27T20:46:16.583Z,95.60
2024-01-27T20:48:45.366Z,95.50
2024-01-27T20:51:14.631Z,95.60
2024-01-27T20:53:44.821Z,95.50
2024-01-27T20:56:13.480Z,95.50
2024-01-27T20:58:44.979Z,95.60
2024-01-27T21:01:14.428Z,95.60
2024-01-27T21:03:43.313Z,95.60
2024-01-27T21:06:12.006Z,95.50
2024-01-27T21:08:41.078Z,95.50
2024-01-27T21:11:14.663Z,95.40
2024-01-27T21:13:43.863Z,95.30
2024-01-27T21:16:12.884Z,95.20
2024-01-27T21:18:42.576Z,95.30
2024-01-27T21:21:11.412Z,95.50
2024-01-27T21:23:40.271Z,95.50
2024-01-27T21:26:10.563Z,95.50
2024-01-27T21:28:39.585Z,95.60
2024-01-27T21:31:08.462Z,95.90
2024-01-27T21:33:37.644Z,96.30
2024-01-27T21:36:07.237Z,96.10
2024-01-27T21:38:36.464Z,96.10
2024-01-27T21:41:05.375Z,96.10
2024-01-27T21:43:35.701Z,96.10
2024-01-27T21:46:07.839Z,96.30
2024-01-27T21:48:37.602Z,96.30
2024-01-27T21:51:10.571Z,96.20
2024-01-27T21:53:41.690Z,96.30
2024-01-27T21:56:12.345Z,96.30
2024-01-27T21:58:42.788Z,96.20
2024-01-27T22:01:12.954Z,96.30
2024-01-27T22:03:41.720Z,96.60
2024-01-27T22:06:10.433Z,96.60
2024-01-27T22:08:40.386Z,96.50
2024-01-27T22:11:08.908Z,96.40
2024-01-27T22:13:37.485Z,96.40
2024-01-27T22:16:08.727Z,96.40
2024-01-27T22:18:37.398Z,96.40
2024-01-27T22:21:07.521Z,96.10
2024-01-27T22:23:36.243Z,96.20
2024-01-27T22:26:04.953Z,96.10
2024-01-27T22:28:33.562Z,96.20
2024-01-27T22:31:02.381Z,96.60
2024-01-27T22:33:32.421Z,96.60
2024-01-27T22:36:01.058Z,96.70
2024-01-27T22:38:29.554Z,96.70
2024-01-27T22:40:58.280Z,96.70
2024-01-27T22:43:27.322Z,96.50
2024-01-27T22:45:56.162Z,96.60
2024-01-27T22:48:24.769Z,96.10
2024-01-27T22:50:56.442Z,96.00
2024-01-27T22:53:24.983Z,96.00
2024-01-27T22:55:53.541Z,96.20
2024-01-27T22:58:21.934Z,96.20
2024-01-27T23:00:50.467Z,96.10
2024-01-27T23:03:20.271Z,95.90
2024-01-27T23:05:49.035Z,95.90
2024-01-27T23:08:18.982Z,95.60
2024-01-27T23:10:47.576Z,95.50
2024-01-27T23:13:18.487Z,95.40
2024-01-27T23:15:47.308Z,95.30
2024-01-27T23:18:16.094Z,95.10
2024-01-27T23:20:44.637Z,95.00
2024-01-27T23:23:13.987Z,94.90
2024-01-27T23:25:47.088Z,94.90
2024-01-27T23:28:15.822Z,94.80
2024-01-27T23:30:46.463Z,94.80
2024-01-27T23:33:15.829Z,94.80
2024-01-27T23:35:44.419Z,94.90
2024-01-27T23:38:12.891Z,95.00
2024-01-27T23:40:41.338Z,95.00
2024-01-27T23:43:11.151Z,95.20
2024-01-27T23:45:39.698Z,95.00
2024-01-27T23:48:08.934Z,95.40
2024-01-27T23:50:37.523Z,95.40
2024-01-27T23:53:10.091Z,95.10
2024-01-27T23:55:43.011Z,95.20
2024-01-27T23:58:13.875Z,95.30
